sensor_id;sensor_type;location;lat;lon;timestamp;pressure;altitude;pressure_sealevel;temperature;humidity
63700;BME280;49845;47.130;142.766;2023-02-08T00:02:29;100815.66;;;-12.27;67.47
63700;BME280;49845;47.130;142.766;2023-02-08T00:04:59;100809.63;;;-12.19;67.43
63700;BME280;49845;47.130;142.766;2023-02-08T00:07:30;100820.94;;;-12.24;67.35
63700;BME280;49845;47.130;142.766;2023-02-08T00:10:00;100817.94;;;-12.20;66.93
63700;BME280;49845;47.130;142.766;2023-02-08T00:12:34;100808.34;;;-12.13;66.91
63700;BME280;49845;47.130;142.766;2023-02-08T00:15:07;100803.06;;;-11.96;67.00
63700;BME280;49845;47.130;142.766;2023-02-08T00:17:39;100811.47;;;-11.85;66.60
63700;BME280;49845;47.130;142.766;2023-02-08T00:20:10;100792.25;;;-11.95;66.42
63700;BME280;49845;47.130;142.766;2023-02-08T00:22:41;100792.44;;;-11.82;66.87
63700;BME280;49845;47.130;142.766;2023-02-08T00:25:11;100791.41;;;-11.74;66.60
63700;BME280;49845;47.130;142.766;2023-02-08T00:27:42;100785.31;;;-11.45;66.90
63700;BME280;49845;47.130;142.766;2023-02-08T00:30:14;100794.56;;;-11.01;66.84
63700;BME280;49845;47.130;142.766;2023-02-08T00:32:45;100787.97;;;-10.67;66.77
63700;BME280;49845;47.130;142.766;2023-02-08T00:35:16;100786.50;;;-10.75;66.17
63700;BME280;49845;47.130;142.766;2023-02-08T00:37:46;100785.38;;;-10.57;66.35
63700;BME280;49845;47.130;142.766;2023-02-08T00:40:17;100781.25;;;-10.45;66.37
63700;BME280;49845;47.130;142.766;2023-02-08T00:42:48;100774.25;;;-10.25;66.76
63700;BME280;49845;47.130;142.766;2023-02-08T00:45:20;100773.38;;;-10.14;66.57
63700;BME280;49845;47.130;142.766;2023-02-08T00:47:51;100770.03;;;-10.03;66.23
63700;BME280;49845;47.130;142.766;2023-02-08T00:50:21;100729.00;;;-9.99;66.41
63700;BME280;49845;47.130;142.766;2023-02-08T00:52:52;100764.88;;;-9.45;66.50
63700;BME280;49845;47.130;142.766;2023-02-08T00:55:22;100758.25;;;-9.20;66.25
63700;BME280;49845;47.130;142.766;2023-02-08T00:57:53;100749.19;;;-9.04;65.88
63700;BME280;49845;47.130;142.766;2023-02-08T01:00:25;100753.22;;;-8.83;65.08
63700;BME280;49845;47.130;142.766;2023-02-08T01:02:56;100758.97;;;-8.60;64.67
63700;BME280;49845;47.130;142.766;2023-02-08T01:05:26;100718.59;;;-8.71;64.32
63700;BME280;49845;47.130;142.766;2023-02-08T01:07:57;100755.41;;;-8.51;63.50
63700;BME280;49845;47.130;142.766;2023-02-08T01:10:27;100758.53;;;-8.66;63.50
63700;BME280;49845;47.130;142.766;2023-02-08T01:12:58;100760.66;;;-9.09;62.95
63700;BME280;49845;47.130;142.766;2023-02-08T01:15:30;100772.38;;;-9.35;63.08
63700;BME280;49845;47.130;142.766;2023-02-08T01:18:01;100745.31;;;-9.60;63.66
63700;BME280;49845;47.130;142.766;2023-02-08T01:20:34;100758.94;;;-9.34;63.68
63700;BME280;49845;47.130;142.766;2023-02-08T01:23:05;100754.25;;;-9.04;63.69
63700;BME280;49845;47.130;142.766;2023-02-08T01:25:38;100710.03;;;-9.09;63.35
63700;BME280;49845;47.130;142.766;2023-02-08T01:28:09;100744.06;;;-8.81;62.95
63700;BME280;49845;47.130;142.766;2023-02-08T01:30:42;100733.19;;;-8.66;63.16
63700;BME280;49845;47.130;142.766;2023-02-08T01:33:12;100735.72;;;-8.41;63.63
63700;BME280;49845;47.130;142.766;2023-02-08T01:35:43;100721.91;;;-8.20;63.25
63700;BME280;49845;47.130;142.766;2023-02-08T01:38:13;100720.13;;;-7.83;62.86
63700;BME280;49845;47.130;142.766;2023-02-08T01:40:44;100726.34;;;-7.38;62.56
63700;BME280;49845;47.130;142.766;2023-02-08T01:43:20;100722.16;;;-6.96;61.49
63700;BME280;49845;47.130;142.766;2023-02-08T01:45:53;100711.00;;;-6.56;60.59
63700;BME280;49845;47.130;142.766;2023-02-08T01:48:27;100701.78;;;-6.39;59.96
63700;BME280;49845;47.130;142.766;2023-02-08T01:51:03;100708.66;;;-6.38;59.69
63700;BME280;49845;47.130;142.766;2023-02-08T01:53:35;100649.47;;;-6.93;59.56
63700;BME280;49845;47.130;142.766;2023-02-08T01:56:08;100659.06;;;-7.03;60.30
63700;BME280;49845;47.130;142.766;2023-02-08T01:58:43;100691.13;;;-7.05;60.78
63700;BME280;49845;47.130;142.766;2023-02-08T02:01:18;100681.09;;;-7.17;61.28
63700;BME280;49845;47.130;142.766;2023-02-08T02:03:49;100680.97;;;-7.05;61.75
63700;BME280;49845;47.130;142.766;2023-02-08T02:06:22;100677.53;;;-6.77;62.09
63700;BME280;49845;47.130;142.766;2023-02-08T02:09:00;100655.41;;;-6.50;61.49
63700;BME280;49845;47.130;142.766;2023-02-08T02:11:32;100658.28;;;-6.29;61.40
63700;BME280;49845;47.130;142.766;2023-02-08T02:14:02;100648.22;;;-6.13;61.21
63700;BME280;49845;47.130;142.766;2023-02-08T02:16:35;100652.53;;;-5.80;60.48
63700;BME280;49845;47.130;142.766;2023-02-08T02:19:10;100641.88;;;-5.58;60.12
63700;BME280;49845;47.130;142.766;2023-02-08T02:21:52;100635.22;;;-5.24;59.84
63700;BME280;49845;47.130;142.766;2023-02-08T02:28:08;100614.84;;;-5.24;59.41
63700;BME280;49845;47.130;142.766;2023-02-08T02:30:59;100558.31;;;-5.66;59.44
63700;BME280;49845;47.130;142.766;2023-02-08T02:33:46;100607.69;;;-5.31;60.06
63700;BME280;49845;47.130;142.766;2023-02-08T02:36:25;100592.88;;;-5.22;60.48
63700;BME280;49845;47.130;142.766;2023-02-08T02:39:06;100548.13;;;-5.49;59.97
63700;BME280;49845;47.130;142.766;2023-02-08T02:41:44;100599.94;;;-5.32;59.74
63700;BME280;49845;47.130;142.766;2023-02-08T02:44:41;100596.13;;;-5.40;59.88
63700;BME280;49845;47.130;142.766;2023-02-08T02:47:21;100590.31;;;-5.38;60.43
63700;BME280;49845;47.130;142.766;2023-02-08T02:50:00;100593.94;;;-5.49;60.46
63700;BME280;49845;47.130;142.766;2023-02-08T02:52:36;100569.97;;;-5.86;59.96
63700;BME280;49845;47.130;142.766;2023-02-08T02:55:13;100588.25;;;-6.24;61.69
63700;BME280;49845;47.130;142.766;2023-02-08T02:57:46;100584.09;;;-6.22;62.83
63700;BME280;49845;47.130;142.766;2023-02-08T03:00:22;100596.38;;;-6.15;63.29
63700;BME280;49845;47.130;142.766;2023-02-08T03:02:54;100591.50;;;-6.41;62.83
63700;BME280;49845;47.130;142.766;2023-02-08T03:05:28;100588.88;;;-6.58;63.44
63700;BME280;49845;47.130;142.766;2023-02-08T03:08:14;100586.66;;;-6.52;64.38
63700;BME280;49845;47.130;142.766;2023-02-08T03:11:03;100581.34;;;-6.41;64.44
63700;BME280;49845;47.130;142.766;2023-02-08T03:13:53;100573.75;;;-6.25;64.26
63700;BME280;49845;47.130;142.766;2023-02-08T03:16:31;100576.09;;;-5.98;64.19
63700;BME280;49845;47.130;142.766;2023-02-08T03:19:12;100538.22;;;-5.92;64.02
63700;BME280;49845;47.130;142.766;2023-02-08T03:21:53;100556.09;;;-5.43;63.50
63700;BME280;49845;47.130;142.766;2023-02-08T03:24:28;100547.03;;;-5.22;62.78
63700;BME280;49845;47.130;142.766;2023-02-08T03:27:07;100554.00;;;-4.67;63.12
63700;BME280;49845;47.130;142.766;2023-02-08T03:29:43;100556.53;;;-4.32;61.96
63700;BME280;49845;47.130;142.766;2023-02-08T03:32:20;100546.75;;;-4.23;61.25
63700;BME280;49845;47.130;142.766;2023-02-08T03:34:55;100546.66;;;-4.07;61.64
63700;BME280;49845;47.130;142.766;2023-02-08T03:37:31;100542.38;;;-4.08;61.41
63700;BME280;49845;47.130;142.766;2023-02-08T03:40:08;100543.56;;;-4.19;61.51
63700;BME280;49845;47.130;142.766;2023-02-08T03:42:40;100539.63;;;-4.30;61.56
63700;BME280;49845;47.130;142.766;2023-02-08T03:45:15;100537.28;;;-4.44;61.51
63700;BME280;49845;47.130;142.766;2023-02-08T03:47:49;100531.78;;;-4.69;61.80
63700;BME280;49845;47.130;142.766;2023-02-08T03:50:21;100521.19;;;-4.95;62.27
63700;BME280;49845;47.130;142.766;2023-02-08T03:52:55;100526.41;;;-4.92;62.65
63700;BME280;49845;47.130;142.766;2023-02-08T03:55:28;100515.47;;;-5.07;63.28
63700;BME280;49845;47.130;142.766;2023-02-08T03:58:04;100524.88;;;-5.23;63.47
63700;BME280;49845;47.130;142.766;2023-02-08T04:00:39;100521.13;;;-5.29;64.33
63700;BME280;49845;47.130;142.766;2023-02-08T04:03:14;100521.22;;;-5.28;64.60
63700;BME280;49845;47.130;142.766;2023-02-08T04:05:46;100518.53;;;-5.47;64.71
63700;BME280;49845;47.130;142.766;2023-02-08T04:08:18;100516.31;;;-5.57;65.48
63700;BME280;49845;47.130;142.766;2023-02-08T04:10:49;100519.34;;;-5.48;65.51
63700;BME280;49845;47.130;142.766;2023-02-08T04:13:20;100506.03;;;-5.43;65.41
63700;BME280;49845;47.130;142.766;2023-02-08T04:15:50;100516.63;;;-5.35;64.98
63700;BME280;49845;47.130;142.766;2023-02-08T04:18:21;100508.31;;;-5.14;65.22
63700;BME280;49845;47.130;142.766;2023-02-08T04:20:51;100504.25;;;-4.77;65.34
63700;BME280;49845;47.130;142.766;2023-02-08T04:23:24;100505.78;;;-4.44;64.35
63700;BME280;49845;47.130;142.766;2023-02-08T04:25:55;100510.31;;;-4.21;63.88
63700;BME280;49845;47.130;142.766;2023-02-08T04:28:25;100503.28;;;-4.07;63.45
63700;BME280;49845;47.130;142.766;2023-02-08T04:30:56;100500.06;;;-4.03;63.19
63700;BME280;49845;47.130;142.766;2023-02-08T04:33:27;100506.03;;;-4.22;63.25
63700;BME280;49845;47.130;142.766;2023-02-08T04:35:58;100505.09;;;-4.42;63.28
63700;BME280;49845;47.130;142.766;2023-02-08T04:38:30;100511.34;;;-4.53;63.54
63700;BME280;49845;47.130;142.766;2023-02-08T04:41:01;100472.13;;;-4.91;63.68
63700;BME280;49845;47.130;142.766;2023-02-08T04:43:31;100497.88;;;-4.85;63.91
63700;BME280;49845;47.130;142.766;2023-02-08T04:46:02;100500.66;;;-4.98;64.30
63700;BME280;49845;47.130;142.766;2023-02-08T04:48:33;100500.66;;;-4.98;64.17
63700;BME280;49845;47.130;142.766;2023-02-08T04:51:03;100402.41;;;-5.61;64.80
63700;BME280;49845;47.130;142.766;2023-02-08T04:53:35;100504.53;;;-4.70;65.34
63700;BME280;49845;47.130;142.766;2023-02-08T04:56:06;100502.44;;;-4.25;65.14
63700;BME280;49845;47.130;142.766;2023-02-08T04:58:37;100505.38;;;-3.61;64.48
63700;BME280;49845;47.130;142.766;2023-02-08T05:01:08;100501.88;;;-3.24;63.36
63700;BME280;49845;47.130;142.766;2023-02-08T05:03:39;100503.63;;;-3.23;62.98
63700;BME280;49845;47.130;142.766;2023-02-08T05:06:10;100508.06;;;-3.58;61.97
63700;BME280;49845;47.130;142.766;2023-02-08T05:08:42;100506.66;;;-4.08;61.54
63700;BME280;49845;47.130;142.766;2023-02-08T05:11:16;100510.31;;;-4.39;61.77
63700;BME280;49845;47.130;142.766;2023-02-08T05:13:48;100499.81;;;-4.81;62.24
63700;BME280;49845;47.130;142.766;2023-02-08T05:16:19;100513.88;;;-5.05;62.27
63700;BME280;49845;47.130;142.766;2023-02-08T05:18:49;100517.72;;;-5.30;62.73
63700;BME280;49845;47.130;142.766;2023-02-08T05:21:20;100521.41;;;-5.41;63.53
63700;BME280;49845;47.130;142.766;2023-02-08T05:23:53;100520.03;;;-5.34;63.84
63700;BME280;49845;47.130;142.766;2023-02-08T05:26:23;100522.38;;;-5.39;63.66
63700;BME280;49845;47.130;142.766;2023-02-08T05:28:54;100524.59;;;-5.29;63.83
63700;BME280;49845;47.130;142.766;2023-02-08T05:31:25;100503.88;;;-5.35;63.53
63700;BME280;49845;47.130;142.766;2023-02-08T05:33:56;100516.28;;;-5.25;62.89
63700;BME280;49845;47.130;142.766;2023-02-08T05:36:26;100530.13;;;-5.20;62.40
63700;BME280;49845;47.130;142.766;2023-02-08T05:38:59;100526.94;;;-5.15;61.94
63700;BME280;49845;47.130;142.766;2023-02-08T05:41:29;100526.47;;;-5.25;61.18
63700;BME280;49845;47.130;142.766;2023-02-08T05:44:00;100528.06;;;-5.27;61.05
63700;BME280;49845;47.130;142.766;2023-02-08T05:46:30;100530.13;;;-5.20;60.56
63700;BME280;49845;47.130;142.766;2023-02-08T05:49:04;100534.16;;;-4.90;60.97
63700;BME280;49845;47.130;142.766;2023-02-08T05:51:35;100539.00;;;-4.61;61.70
63700;BME280;49845;47.130;142.766;2023-02-08T05:54:08;100543.50;;;-4.39;61.51
63700;BME280;49845;47.130;142.766;2023-02-08T05:56:40;100548.78;;;-4.52;61.38
63700;BME280;49845;47.130;142.766;2023-02-08T05:59:12;100524.78;;;-4.73;61.04
63700;BME280;49845;47.130;142.766;2023-02-08T06:01:45;100529.00;;;-5.08;60.76
63700;BME280;49845;47.130;142.766;2023-02-08T06:04:16;100537.94;;;-5.33;60.57
63700;BME280;49845;47.130;142.766;2023-02-08T06:06:47;100542.97;;;-5.51;60.44
63700;BME280;49845;47.130;142.766;2023-02-08T06:09:19;100550.00;;;-5.78;59.99
63700;BME280;49845;47.130;142.766;2023-02-08T06:11:52;100538.22;;;-5.92;60.36
63700;BME280;49845;47.130;142.766;2023-02-08T06:14:23;100543.00;;;-5.98;60.96
63700;BME280;49845;47.130;142.766;2023-02-08T06:16:54;100558.03;;;-6.03;60.44
63700;BME280;49845;47.130;142.766;2023-02-08T06:19:24;100556.03;;;-6.09;60.01
63700;BME280;49845;47.130;142.766;2023-02-08T06:21:55;100560.75;;;-6.15;60.33
63700;BME280;49845;47.130;142.766;2023-02-08T06:24:27;100561.34;;;-6.35;61.08
63700;BME280;49845;47.130;142.766;2023-02-08T06:26:58;100558.69;;;-6.52;61.75
63700;BME280;49845;47.130;142.766;2023-02-08T06:29:28;100562.75;;;-6.70;62.28
63700;BME280;49845;47.130;142.766;2023-02-08T06:31:59;100572.75;;;-6.73;63.48
63700;BME280;49845;47.130;142.766;2023-02-08T06:34:30;100541.16;;;-7.21;63.52
63700;BME280;49845;47.130;142.766;2023-02-08T06:37:00;100578.13;;;-7.40;63.81
63700;BME280;49845;47.130;142.766;2023-02-08T06:39:34;100573.28;;;-7.50;64.36
63700;BME280;49845;47.130;142.766;2023-02-08T06:42:05;100574.50;;;-7.58;64.16
63700;BME280;49845;47.130;142.766;2023-02-08T06:44:35;100575.41;;;-7.43;65.45
63700;BME280;49845;47.130;142.766;2023-02-08T06:47:20;100549.13;;;-7.58;65.45
63700;BME280;49845;47.130;142.766;2023-02-08T06:49:51;100578.63;;;-7.73;66.63
63700;BME280;49845;47.130;142.766;2023-02-08T06:52:22;100576.41;;;-8.09;68.44
63700;BME280;49845;47.130;142.766;2023-02-08T06:54:55;100551.19;;;-8.34;69.15
63700;BME280;49845;47.130;142.766;2023-02-08T06:57:25;100572.03;;;-8.11;70.06
63700;BME280;49845;47.130;142.766;2023-02-08T06:59:56;100576.16;;;-8.13;70.28
63700;BME280;49845;47.130;142.766;2023-02-08T07:02:27;100579.50;;;-8.41;70.50
63700;BME280;49845;47.130;142.766;2023-02-08T07:04:57;100579.47;;;-8.54;71.29
63700;BME280;49845;47.130;142.766;2023-02-08T07:07:28;100574.41;;;-8.54;71.42
63700;BME280;49845;47.130;142.766;2023-02-08T07:10:00;100566.81;;;-8.54;71.34
63700;BME280;49845;47.130;142.766;2023-02-08T07:12:32;100563.28;;;-8.56;70.97
63700;BME280;49845;47.130;142.766;2023-02-08T07:15:03;100559.19;;;-8.68;71.55
63700;BME280;49845;47.130;142.766;2023-02-08T07:17:33;100574.41;;;-8.68;71.03
63700;BME280;49845;47.130;142.766;2023-02-08T07:20:04;100585.69;;;-8.76;71.64
63700;BME280;49845;47.130;142.766;2023-02-08T07:22:35;100590.75;;;-8.76;72.56
63700;BME280;49845;47.130;142.766;2023-02-08T07:25:08;100588.00;;;-8.79;72.43
63700;BME280;49845;47.130;142.766;2023-02-08T07:27:39;100582.53;;;-8.98;72.58
63700;BME280;49845;47.130;142.766;2023-02-08T07:30:10;100587.13;;;-9.18;72.47
63700;BME280;49845;47.130;142.766;2023-02-08T07:32:41;100589.97;;;-9.38;72.22
63700;BME280;49845;47.130;142.766;2023-02-08T07:35:12;100585.41;;;-9.56;72.22
63700;BME280;49845;47.130;142.766;2023-02-08T07:37:42;100584.75;;;-9.65;72.70
63700;BME280;49845;47.130;142.766;2023-02-08T07:40:15;100589.97;;;-9.75;72.90
63700;BME280;49845;47.130;142.766;2023-02-08T07:42:45;100587.03;;;-10.05;72.10
63700;BME280;49845;47.130;142.766;2023-02-08T07:45:16;100597.16;;;-10.28;71.84
63700;BME280;49845;47.130;142.766;2023-02-08T07:47:46;100601.78;;;-10.58;71.51
63700;BME280;49845;47.130;142.766;2023-02-08T07:50:17;100594.94;;;-10.82;71.79
63700;BME280;49845;47.130;142.766;2023-02-08T07:52:48;100600.69;;;-11.07;71.54
63700;BME280;49845;47.130;142.766;2023-02-08T07:55:20;100612.28;;;-11.43;71.42
63700;BME280;49845;47.130;142.766;2023-02-08T07:57:50;100610.13;;;-11.70;72.47
63700;BME280;49845;47.130;142.766;2023-02-08T08:00:21;100625.25;;;-11.70;73.16
63700;BME280;49845;47.130;142.766;2023-02-08T08:02:52;100624.56;;;-11.80;73.59
63700;BME280;49845;47.130;142.766;2023-02-08T08:05:25;100627.31;;;-11.77;74.55
63700;BME280;49845;47.130;142.766;2023-02-08T08:07:59;100620.03;;;-11.84;74.94
63700;BME280;49845;47.130;142.766;2023-02-08T08:10:31;100629.09;;;-11.98;74.60
63700;BME280;49845;47.130;142.766;2023-02-08T08:13:02;100636.69;;;-12.08;74.82
63700;BME280;49845;47.130;142.766;2023-02-08T08:15:35;100635.59;;;-12.32;74.84
63700;BME280;49845;47.130;142.766;2023-02-08T08:18:09;100637.91;;;-12.45;75.22
63700;BME280;49845;47.130;142.766;2023-02-08T08:20:42;100643.44;;;-12.60;75.16
63700;BME280;49845;47.130;142.766;2023-02-08T08:23:13;100586.34;;;-13.12;74.91
63700;BME280;49845;47.130;142.766;2023-02-08T08:25:49;100626.84;;;-13.09;74.57
63700;BME280;49845;47.130;142.766;2023-02-08T08:29:25;100601.84;;;-13.28;74.80
63700;BME280;49845;47.130;142.766;2023-02-08T08:31:36;100557.34;;;-13.88;74.14
63700;BME280;49845;47.130;142.766;2023-02-08T08:34:10;100655.69;;;-13.65;74.66
63700;BME280;49845;47.130;142.766;2023-02-08T08:39:57;100659.69;;;-13.67;75.80
63700;BME280;49845;47.130;142.766;2023-02-08T08:42:36;100660.91;;;-13.72;75.72
63700;BME280;49845;47.130;142.766;2023-02-08T08:45:10;100659.41;;;-13.99;74.66
63700;BME280;49845;47.130;142.766;2023-02-08T08:47:41;100663.44;;;-14.20;74.95
63700;BME280;49845;47.130;142.766;2023-02-08T08:50:18;100659.38;;;-14.28;75.03
63700;BME280;49845;47.130;142.766;2023-02-08T08:52:53;100655.22;;;-14.28;75.77
63700;BME280;49845;47.130;142.766;2023-02-08T08:55:28;100664.19;;;-14.40;76.02
63700;BME280;49845;47.130;142.766;2023-02-08T08:58:03;100666.75;;;-14.59;76.69
63700;BME280;49845;47.130;142.766;2023-02-08T09:00:57;100671.81;;;-14.68;77.38
63700;BME280;49845;47.130;142.766;2023-02-08T09:03:32;100682.19;;;-14.73;77.42
63700;BME280;49845;47.130;142.766;2023-02-08T09:06:04;100685.47;;;-14.45;82.02
63700;BME280;49845;47.130;142.766;2023-02-08T09:08:37;100684.75;;;-14.25;82.60
63700;BME280;49845;47.130;142.766;2023-02-08T09:11:13;100684.34;;;-14.11;82.08
63700;BME280;49845;47.130;142.766;2023-02-08T09:13:54;100686.38;;;-14.07;81.64
63700;BME280;49845;47.130;142.766;2023-02-08T09:16:25;100675.00;;;-14.22;81.04
63700;BME280;49845;47.130;142.766;2023-02-08T09:19:03;100694.78;;;-14.25;80.77
63700;BME280;49845;47.130;142.766;2023-02-08T09:21:39;100672.56;;;-14.50;80.42
63700;BME280;49845;47.130;142.766;2023-02-08T09:24:13;100706.03;;;-14.30;80.59
63700;BME280;49845;47.130;142.766;2023-02-08T09:26:43;100700.97;;;-14.22;80.41
63700;BME280;49845;47.130;142.766;2023-02-08T09:29:22;100700.75;;;-14.34;79.35
63700;BME280;49845;47.130;142.766;2023-02-08T09:31:52;100698.22;;;-14.52;78.55
63700;BME280;49845;47.130;142.766;2023-02-08T09:34:24;100694.38;;;-14.87;77.33
63700;BME280;49845;47.130;142.766;2023-02-08T09:37:12;100700.66;;;-15.09;77.13
63700;BME280;49845;47.130;142.766;2023-02-08T09:39:43;100700.59;;;-15.28;77.39
63700;BME280;49845;47.130;142.766;2023-02-08T09:46:17;100687.03;;;-15.67;77.53
63700;BME280;49845;47.130;142.766;2023-02-08T09:49:16;100702.97;;;-15.75;77.39
63700;BME280;49845;47.130;142.766;2023-02-08T09:52:14;100712.13;;;-15.93;77.65
63700;BME280;49845;47.130;142.766;2023-02-08T09:54:52;100586.81;;;-16.74;78.12
63700;BME280;49845;47.130;142.766;2023-02-08T09:57:27;100714.75;;;-15.82;78.59
63700;BME280;49845;47.130;142.766;2023-02-08T10:00:02;100719.69;;;-15.56;78.96
63700;BME280;49845;47.130;142.766;2023-02-08T10:02:36;100723.47;;;-15.34;79.04
63700;BME280;49845;47.130;142.766;2023-02-08T10:05:11;100721.63;;;-15.17;78.70
63700;BME280;49845;47.130;142.766;2023-02-08T10:07:44;100731.78;;;-15.07;78.42
63700;BME280;49845;47.130;142.766;2023-02-08T10:10:21;100733.00;;;-14.85;79.16
63700;BME280;49845;47.130;142.766;2023-02-08T10:13:05;100727.31;;;-14.73;79.81
63700;BME280;49845;47.130;142.766;2023-02-08T10:15:47;100731.25;;;-14.48;80.59
63700;BME280;49845;47.130;142.766;2023-02-08T10:22:28;100745.06;;;-13.77;83.13
63700;BME280;49845;47.130;142.766;2023-02-08T10:28:09;100751.06;;;-13.27;84.07
63700;BME280;49845;47.130;142.766;2023-02-08T10:30:50;100723.88;;;-13.21;84.32
63700;BME280;49845;47.130;142.766;2023-02-08T10:33:29;100756.66;;;-12.90;84.19
63700;BME280;49845;47.130;142.766;2023-02-08T10:36:06;100760.97;;;-12.79;83.85
63700;BME280;49845;47.130;142.766;2023-02-08T10:38:45;100694.13;;;-13.06;83.39
63700;BME280;49845;47.130;142.766;2023-02-08T10:41:22;100661.28;;;-13.18;82.81
63700;BME280;49845;47.130;142.766;2023-02-08T10:44:00;100764.28;;;-12.60;82.39
63700;BME280;49845;47.130;142.766;2023-02-08T10:46:39;100752.94;;;-12.54;82.17
63700;BME280;49845;47.130;142.766;2023-02-08T10:49:17;100750.91;;;-12.58;81.54
63700;BME280;49845;47.130;142.766;2023-02-08T10:51:52;100754.22;;;-12.49;80.78
63700;BME280;49845;47.130;142.766;2023-02-08T10:54:26;100760.59;;;-12.53;79.94
63700;BME280;49845;47.130;142.766;2023-02-08T10:57:00;100759.50;;;-12.56;79.81
63700;BME280;49845;47.130;142.766;2023-02-08T10:59:36;100759.63;;;-12.65;79.51
63700;BME280;49845;47.130;142.766;2023-02-08T11:02:20;100763.25;;;-12.72;79.42
63700;BME280;49845;47.130;142.766;2023-02-08T11:04:59;100669.53;;;-13.50;78.60
63700;BME280;49845;47.130;142.766;2023-02-08T11:07:31;100750.69;;;-13.11;78.54
63700;BME280;49845;47.130;142.766;2023-02-08T11:10:21;100768.97;;;-13.04;78.58
63700;BME280;49845;47.130;142.766;2023-02-08T11:12:55;100730.63;;;-13.40;78.34
63700;BME280;49845;47.130;142.766;2023-02-08T11:15:32;100705.97;;;-13.55;78.28
63700;BME280;49845;47.130;142.766;2023-02-08T11:18:07;100664.50;;;-13.89;77.86
63700;BME280;49845;47.130;142.766;2023-02-08T11:20:48;100764.34;;;-13.38;77.58
63700;BME280;49845;47.130;142.766;2023-02-08T11:23:23;100782.44;;;-13.42;77.57
63700;BME280;49845;47.130;142.766;2023-02-08T11:26:15;100786.19;;;-13.66;77.17
63700;BME280;49845;47.130;142.766;2023-02-08T11:29:00;100765.91;;;-13.78;77.38
63700;BME280;49845;47.130;142.766;2023-02-08T11:31:32;100778.59;;;-13.77;78.05
63700;BME280;49845;47.130;142.766;2023-02-08T11:34:05;100783.28;;;-13.71;78.65
63700;BME280;49845;47.130;142.766;2023-02-08T11:36:43;100759.63;;;-13.73;78.50
63700;BME280;49845;47.130;142.766;2023-02-08T11:39:20;100776.56;;;-13.81;78.40
63700;BME280;49845;47.130;142.766;2023-02-08T11:41:57;100763.38;;;-13.78;78.66
63700;BME280;49845;47.130;142.766;2023-02-08T11:44:32;100781.84;;;-13.78;77.93
63700;BME280;49845;47.130;142.766;2023-02-08T11:47:05;100769.09;;;-13.89;78.07
63700;BME280;49845;47.130;142.766;2023-02-08T11:49:39;100667.53;;;-14.50;77.70
63700;BME280;49845;47.130;142.766;2023-02-08T11:52:20;100706.00;;;-14.60;77.48
63700;BME280;49845;47.130;142.766;2023-02-08T11:54:54;100772.38;;;-14.09;77.27
63700;BME280;49845;47.130;142.766;2023-02-08T11:57:53;100778.22;;;-14.28;77.00
63700;BME280;49845;47.130;142.766;2023-02-08T12:00:27;100779.38;;;-14.43;76.48
63700;BME280;49845;47.130;142.766;2023-02-08T13:30:00;100795.75;;;-16.34;75.61
63700;BME280;49845;47.130;142.766;2023-02-08T13:32:42;100822.28;;;-15.93;77.41
63700;BME280;49845;47.130;142.766;2023-02-08T13:35:20;100737.47;;;-16.24;77.39
63700;BME280;49845;47.130;142.766;2023-02-08T13:37:59;100827.16;;;-15.77;76.77
63700;BME280;49845;47.130;142.766;2023-02-08T13:40:33;100830.25;;;-15.71;76.56
63700;BME280;49845;47.130;142.766;2023-02-08T13:43:06;100718.03;;;-16.44;76.28
63700;BME280;49845;47.130;142.766;2023-02-08T13:45:43;100837.56;;;-15.46;77.02
63700;BME280;49845;47.130;142.766;2023-02-08T13:48:17;100831.94;;;-15.35;77.00
63700;BME280;49845;47.130;142.766;2023-02-08T13:50:52;100836.31;;;-15.06;76.84
63700;BME280;49845;47.130;142.766;2023-02-08T13:56:38;100845.47;;;-14.62;76.38
63700;BME280;49845;47.130;142.766;2023-02-08T13:59:32;100849.97;;;-14.49;75.89
63700;BME280;49845;47.130;142.766;2023-02-08T14:02:26;100745.50;;;-15.12;74.95
63700;BME280;49845;47.130;142.766;2023-02-08T14:08:02;100854.31;;;-14.38;74.56
63700;BME280;49845;47.130;142.766;2023-02-08T14:18:23;100759.03;;;-15.02;74.33
63700;BME280;49845;47.130;142.766;2023-02-08T14:21:02;100859.41;;;-14.46;73.70
63700;BME280;49845;47.130;142.766;2023-02-08T14:23:36;100860.38;;;-14.54;73.78
63700;BME280;49845;47.130;142.766;2023-02-08T14:30:33;100864.19;;;-14.58;73.65
63700;BME280;49845;47.130;142.766;2023-02-08T14:37:29;100875.72;;;-14.60;73.21
63700;BME280;49845;47.130;142.766;2023-02-08T14:40:45;100878.13;;;-14.70;72.79
63700;BME280;49845;47.130;142.766;2023-02-08T14:43:33;100874.34;;;-14.93;72.82
63700;BME280;49845;47.130;142.766;2023-02-08T14:46:43;100881.41;;;-14.97;72.76
63700;BME280;49845;47.130;142.766;2023-02-08T14:49:15;100890.28;;;-15.01;72.55
63700;BME280;49845;47.130;142.766;2023-02-08T14:51:50;100887.22;;;-15.07;72.70
63700;BME280;49845;47.130;142.766;2023-02-08T14:54:31;100841.69;;;-15.38;72.52
63700;BME280;49845;47.130;142.766;2023-02-08T14:57:05;100889.13;;;-15.13;72.36
63700;BME280;49845;47.130;142.766;2023-02-08T14:59:39;100882.03;;;-15.17;72.40
63700;BME280;49845;47.130;142.766;2023-02-08T15:06:19;100890.31;;;-15.18;71.82
63700;BME280;49845;47.130;142.766;2023-02-08T15:08:55;100881.19;;;-15.27;71.50
63700;BME280;49845;47.130;142.766;2023-02-08T15:11:31;100914.22;;;-15.22;71.56
63700;BME280;49845;47.130;142.766;2023-02-08T15:14:05;100891.78;;;-15.21;71.11
63700;BME280;49845;47.130;142.766;2023-02-08T15:16:42;100882.50;;;-15.22;70.60